KCLW/CLW METAR and TAF weather

Enter ICAO airport designator
Station Type Date Time Source
KCLW METAR 2020/03/31 22:55 UTC NOAA

KCLW 312255Z AUTO 23014G21KT 10SM BKN014 BKN024 26/22 A2978 RMK AO2


Station Type Date Time Source
KCLW Decoded METAR 2020/03/31 22:55 UTC NOAA

Station name not available
Mar 31, 2020 - 06:55 PM EDT / 2020.03.31 2255 UTC
Wind: from the SW (230 degrees) at 16 MPH (14 KT) gusting to 24 MPH (21 KT):0
Visibility: 10 mile(s):0
Sky conditions: mostly cloudy
Temperature: 78 F (26 C)
Dew Point: 71 F (22 C)
Relative Humidity: 78%
Pressure (altimeter): 29.78 in. Hg (1008 hPa)
ob: KCLW 312255Z AUTO 23014G21KT 10SM BKN014 BKN024 26/22 A2978 RMK AO2
cycle: 23

Station Type Date Time Source
KCLW TAF UTC NOAA

Error!

Example: see airport list